Time;durP1;ratioP1;P1;durP2;ratioP2;P2;SDS_P1;SDS_P2;PMS_P1;PMS_P2;Temp;Humidity;BMP_temperature;BMP_pressure;BME280_temperature;BME280_humidity;BME280_pressure;Samples;Min_cycle;Max_cycle;Signal;HPM_P1;HPM_P2
2024/04/10 00:01:50;;;;;;;21.90;13.93;;;;;;;-145.63;100.00;61273.97;4994632;28;20400;-66
2024/04/10 00:07:39;;;;;;;21.02;13.65;;;;;;;-145.63;100.00;61273.97;4973014;28;20077;-65
2024/04/10 00:10:08;;;;;;;27.30;13.20;;;;;;;-145.63;100.00;61273.97;4990304;28;20109;-67
2024/04/10 00:13:10;;;;;;;20.38;13.23;;;;;;;-145.63;100.00;61273.97;4973461;28;20463;-64
2024/04/10 00:19:06;;;;;;;20.50;13.00;;;;;;;-145.63;100.00;61273.97;4976146;28;20031;-66
2024/04/10 00:24:34;;;;;;;21.05;13.73;;;;;;;-145.63;100.00;61273.97;4997656;28;20034;-66
2024/04/10 00:27:03;;;;;;;;;;;;;;;-145.63;100.00;61273.97;4989951;28;20094;-67
2024/04/10 00:29:56;;;;;;;22.55;13.23;;;;;;;-145.63;100.00;61273.97;4972947;28;19921;-66
2024/04/10 00:32:27;;;;;;;18.02;12.68;;;;;;;-145.63;100.00;61273.97;4975703;28;20122;-65
2024/04/10 00:38:04;;;;;;;25.35;14.70;;;;;;;-145.63;100.00;61273.97;4972725;28;20035;-65
2024/04/10 00:40:42;;;;;;;21.90;14.57;;;;;;;-145.63;100.00;61273.97;4990922;28;20430;-66
2024/04/10 00:49:08;;;;;;;30.15;16.80;;;;;;;-145.63;100.00;61273.97;4992010;28;20410;-65
2024/04/10 00:55:04;;;;;;;20.98;14.38;;;;;;;-145.63;100.00;61273.97;4972653;28;20113;-64
2024/04/10 00:57:48;;;;;;;23.50;13.70;;;;;;;-145.63;100.00;61273.97;4983797;28;20046;-66
2024/04/10 01:00:32;;;;;;;25.63;13.80;;;;;;;-145.63;100.00;61273.97;4996031;28;20511;-65
2024/04/10 01:03:24;;;;;;;24.45;14.32;;;;;;;-145.63;100.00;61273.97;4981017;28;20070;-67
2024/04/10 01:09:25;;;;;;;28.13;15.57;;;;;;;-145.63;100.00;61273.97;4983549;28;20027;-65
2024/04/10 01:12:15;;;;;;;23.92;15.48;;;;;;;-145.63;100.00;61273.97;4992010;28;20057;-65
2024/04/10 01:14:43;;;;;;;28.05;15.20;;;;;;;-145.63;100.00;61273.97;4986640;28;20051;-65
2024/04/10 01:17:15;;;;;;;27.52;14.60;;;;;;;-145.63;100.00;61273.97;4988250;28;20030;-66
2024/04/10 01:20:08;;;;;;;28.40;17.63;;;;;;;-145.63;100.00;61273.97;4991329;28;20085;-65
2024/04/10 01:26:14;;;;;;;29.83;20.75;;;;;;;-145.63;100.00;61273.97;4978031;28;20026;-65
2024/04/10 01:29:01;;;;;;;36.30;22.70;;;;;;;-145.63;100.00;61273.97;4977649;28;20062;-65
2024/04/10 01:31:30;;;;;;;33.45;22.48;;;;;;;-145.63;100.00;61273.97;4981346;28;20033;-66
2024/04/10 01:34:01;;;;;;;36.00;23.85;;;;;;;-145.63;100.00;61273.97;4978026;28;20027;-66
2024/04/10 01:37:13;;;;;;;37.63;23.50;;;;;;;-145.63;100.00;61273.97;4972753;28;20399;-66
2024/04/10 01:39:44;;;;;;;32.17;22.05;;;;;;;-145.63;100.00;61273.97;4985326;28;20402;-66
2024/04/10 01:42:47;;;;;;;36.00;22.17;;;;;;;-145.63;100.00;61273.97;4977447;28;20383;-66
2024/04/10 01:45:12;;;;;;;33.92;22.83;;;;;;;-145.63;100.00;61273.97;4972294;28;20027;-65
2024/04/10 01:47:44;;;;;;;31.30;22.40;;;;;;;-145.63;100.00;61273.97;4991164;28;20057;-66
2024/04/10 01:50:42;;;;;;;35.50;22.77;;;;;;;-145.63;100.00;61273.97;4989815;28;20383;-66
2024/04/10 01:53:10;;;;;;;33.85;23.15;;;;;;;-145.63;100.00;61273.97;4992254;28;20035;-65
2024/04/10 01:55:57;;;;;;;33.20;22.80;;;;;;;-145.63;100.00;61273.97;4979560;28;20042;-65
2024/04/10 02:01:49;;;;;;;37.17;23.60;;;;;;;-145.63;100.00;61273.97;4994119;28;20050;-67
2024/04/10 02:04:39;;;;;;;37.40;20.20;;;;;;;-145.63;100.00;61273.97;4985645;28;20030;-66
2024/04/10 02:07:22;;;;;;;36.63;19.77;;;;;;;-145.63;100.00;61273.97;4992096;28;20085;-66
2024/04/10 02:10:15;;;;;;;60.70;21.17;;;;;;;-145.63;100.00;61273.97;4995191;28;20068;-66
2024/04/10 02:13:21;;;;;;;41.80;21.17;;;;;;;-145.63;100.00;61273.97;4988170;28;20129;-66
2024/04/10 02:16:14;;;;;;;38.67;21.90;;;;;;;-145.63;100.00;61273.97;4979438;28;20069;-66
2024/04/10 02:21:54;;;;;;;110.50;25.17;;;;;;;-145.63;100.00;61273.97;4993267;28;20023;-66
2024/04/10 02:24:53;;;;;;;41.20;22.35;;;;;;;-145.63;100.00;61273.97;4994935;28;20023;-66
2024/04/10 02:27:34;;;;;;;59.90;21.73;;;;;;;-145.63;100.00;61273.97;5003555;28;20030;-66
2024/04/10 02:30:21;;;;;;;76.95;22.73;;;;;;;-145.63;100.00;61273.97;4987643;28;20039;-66
2024/04/10 02:32:55;;;;;;;63.67;23.95;;;;;;;-145.63;100.00;61273.97;4980706;28;20041;-65
2024/04/10 02:35:24;;;;;;;38.30;20.60;;;;;;;-145.63;100.00;61273.97;4996009;28;20050;-65
2024/04/10 02:38:05;;;;;;;65.28;21.45;;;;;;;-145.63;100.00;61273.97;4994514;28;20053;-66
2024/04/10 02:40:55;;;;;;;35.42;20.58;;;;;;;-145.63;100.00;61273.97;4974700;28;20031;-66
2024/04/10 02:43:51;;;;;;;34.90;18.58;;;;;;;-145.63;100.00;61273.97;4975344;28;20053;-66
2024/04/10 02:46:41;;;;;;;63.80;21.13;;;;;;;-145.63;100.00;61273.97;4975357;28;20796;-66
2024/04/10 02:49:10;;;;;;;42.75;17.08;;;;;;;-145.63;100.00;61273.97;4986019;28;20038;-65
2024/04/10 02:51:38;;;;;;;28.08;16.33;;;;;;;-145.63;100.00;61273.97;4990862;28;20027;-65
2024/04/10 02:54:13;;;;;;;38.63;17.45;;;;;;;-145.63;100.00;61273.97;4990073;28;20034;-66
2024/04/10 02:57:16;;;;;;;31.80;15.55;;;;;;;-145.63;100.00;61273.97;4992147;28;20117;-66
2024/04/10 03:00:00;;;;;;;21.55;15.40;;;;;;;-145.63;100.00;61273.97;4974172;28;20510;-66
2024/04/10 03:05:19;;;;;;;33.28;15.98;;;;;;;-145.63;100.00;61273.97;4992938;28;20039;-65
2024/04/10 03:08:06;;;;;;;22.25;13.68;;;;;;;-145.63;100.00;61273.97;4973894;28;20042;-67
2024/04/10 03:10:59;;;;;;;19.52;13.95;;;;;;;-145.63;100.00;61273.97;4984871;28;20096;-65
2024/04/10 03:13:44;;;;;;;26.63;14.80;;;;;;;-145.63;100.00;61273.97;4988272;28;20038;-66
2024/04/10 03:16:18;;;;;;;19.85;13.70;;;;;;;-145.63;100.00;61273.97;4977296;28;20038;-66
2024/04/10 03:21:56;;;;;;;20.25;14.25;;;;;;;-145.63;100.00;61273.97;4978941;28;20035;-65
2024/04/10 03:24:24;;;;;;;24.95;14.95;;;;;;;-145.63;100.00;61273.97;4981883;28;20432;-66
2024/04/10 03:26:59;;;;;;;21.00;13.73;;;;;;;-145.63;100.00;61273.97;4989310;28;20022;-65
2024/04/10 03:29:46;;;;;;;33.38;14.68;;;;;;;-145.63;100.00;61273.97;4991695;28;20030;-66
2024/04/10 03:32:48;;;;;;;28.40;15.18;;;;;;;-145.63;100.00;61273.97;4974566;28;20049;-66
2024/04/10 03:35:51;;;;;;;37.90;15.05;;;;;;;-145.63;100.00;61273.97;4990682;28;20129;-64
2024/04/10 03:38:20;;;;;;;24.58;16.05;;;;;;;-145.63;100.00;61273.97;4973438;28;20533;-65
2024/04/10 03:41:22;;;;;;;42.97;16.40;;;;;;;-145.63;100.00;61273.97;4993826;28;20065;-66
2024/04/10 03:43:54;;;;;;;25.95;15.35;;;;;;;-145.63;100.00;61273.97;4989650;28;20022;-65
2024/04/10 03:46:38;;;;;;;23.48;15.85;;;;;;;-145.63;100.00;61273.97;4975312;28;20041;-65
2024/04/10 03:52:44;;;;;;;20.73;15.30;;;;;;;-145.63;100.00;61273.97;4992489;28;20500;-66
2024/04/10 03:55:22;;;;;;;26.55;14.90;;;;;;;-145.63;100.00;61273.97;4975954;28;20080;-65
2024/04/10 03:57:56;;;;;;;47.78;14.18;;;;;;;-145.63;100.00;61273.97;4986859;28;20108;-66
2024/04/10 04:00:45;;;;;;;21.83;14.00;;;;;;;-145.63;100.00;61273.97;4982723;28;20038;-65
2024/04/10 04:03:29;;;;;;;20.95;13.98;;;;;;;-145.63;100.00;61273.97;4981121;28;20045;-66
2024/04/10 04:06:12;;;;;;;18.77;13.35;;;;;;;-145.63;100.00;61273.97;4986799;28;20030;-65
2024/04/10 04:08:47;;;;;;;21.55;13.48;;;;;;;-145.63;100.00;61273.97;4975968;28;20499;-65
2024/04/10 04:11:18;;;;;;;21.90;14.25;;;;;;;-145.63;100.00;61273.97;4992867;28;20058;-65
2024/04/10 04:13:52;;;;;;;19.42;12.82;;;;;;;-145.63;100.00;61273.97;4973501;28;20035;-65
2024/04/10 04:16:36;;;;;;;19.23;12.75;;;;;;;-145.63;100.00;61273.97;4972672;28;20121;-66
2024/04/10 04:19:14;;;;;;;22.00;13.63;;;;;;;-145.63;100.00;61273.97;4988111;28;20038;-66
2024/04/10 04:21:51;;;;;;;18.80;10.98;;;;;;;-145.63;100.00;61273.97;4979078;28;20490;-65
2024/04/10 04:24:31;;;;;;;16.55;9.85;;;;;;;-145.63;100.00;61273.97;4983517;28;20146;-65
2024/04/10 04:27:00;;;;;;;21.20;9.60;;;;;;;-145.63;100.00;61273.97;4984576;28;20073;-66
2024/04/10 04:29:28;;;;;;;17.27;11.57;;;;;;;-145.63;100.00;61273.97;4990419;28;20093;-65
2024/04/10 04:32:11;;;;;;;15.30;10.83;;;;;;;-145.63;100.00;61273.97;4986348;28;20038;-65
2024/04/10 04:34:51;;;;;;;16.30;10.73;;;;;;;-145.63;100.00;61273.97;4973144;28;20195;-66
2024/04/10 04:37:38;;;;;;;15.88;10.73;;;;;;;-145.63;100.00;61273.97;4989729;28;20026;-65
2024/04/10 04:40:16;;;;;;;18.10;10.10;;;;;;;-145.63;100.00;61273.97;4987647;28;20037;-65
2024/04/10 04:42:47;;;;;;;12.90;9.70;;;;;;;-145.63;100.00;61273.97;4980605;28;20026;-66
2024/04/10 04:45:32;;;;;;;17.90;10.43;;;;;;;-145.63;100.00;61273.97;4980723;28;20038;-64
2024/04/10 04:48:43;;;;;;;17.47;10.83;;;;;;;-145.63;100.00;61273.97;4985238;28;20023;-65
2024/04/10 04:54:20;;;;;;;12.52;9.85;;;;;;;-145.63;100.00;61273.97;4986612;28;20038;-66
2024/04/10 04:57:12;;;;;;;14.80;10.48;;;;;;;-145.63;100.00;61273.97;4984267;28;20439;-67
2024/04/10 04:59:56;;;;;;;14.10;9.75;;;;;;;-145.63;100.00;61273.97;4975059;28;20466;-67
2024/04/10 05:02:25;;;;;;;17.15;10.65;;;;;;;-145.63;100.00;61273.97;4982547;28;20739;-67
2024/04/10 05:05:11;;;;;;;18.90;11.30;;;;;;;-145.63;100.00;61273.97;4972413;28;20205;-66
2024/04/10 05:08:08;;;;;;;13.05;10.32;;;;;;;-145.63;100.00;61273.97;4990928;28;20113;-66
2024/04/10 05:13:59;;;;;;;13.07;9.32;;;;;;;-145.63;100.00;61273.97;4973473;28;20154;-66
2024/04/10 05:16:43;;;;;;;14.27;9.65;;;;;;;-145.63;100.00;61273.97;4991069;28;20034;-65
2024/04/10 05:19:27;;;;;;;13.77;9.10;;;;;;;-145.63;100.00;61273.97;4977306;28;20031;-66
2024/04/10 05:22:01;;;;;;;14.05;9.52;;;;;;;-145.63;100.00;61273.97;4985809;28;20038;-65
2024/04/10 05:24:29;;;;;;;13.27;10.07;;;;;;;-145.63;100.00;61273.97;4981750;28;20035;-65
2024/04/10 05:27:04;;;;;;;12.85;10.40;;;;;;;-145.63;100.00;61273.97;4985100;28;20065;-66
2024/04/10 05:29:56;;;;;;;15.05;10.48;;;;;;;-145.63;100.00;61273.97;4975386;28;20201;-66
2024/04/10 05:32:22;;;;;;;18.90;11.82;;;;;;;-145.63;100.00;61273.97;4976823;28;20071;-66
2024/04/10 05:35:05;;;;;;;16.05;11.52;;;;;;;-145.63;100.00;61273.97;5015638;28;20033;-66
2024/04/10 05:37:40;;;;;;;17.30;11.48;;;;;;;-145.63;100.00;61273.97;4996378;28;20026;-64
2024/04/10 05:43:28;;;;;;;15.80;11.88;;;;;;;-145.63;100.00;61273.97;4984008;28;20062;-66
2024/04/10 05:46:11;;;;;;;13.85;11.60;;;;;;;-145.63;100.00;61273.97;4982619;28;20049;-67
2024/04/10 05:48:52;;;;;;;17.15;12.18;;;;;;;-145.63;100.00;61273.97;4990304;28;20076;-67
2024/04/10 05:51:24;;;;;;;16.65;12.07;;;;;;;-145.63;100.00;61273.97;4993383;28;20038;-66
2024/04/10 05:53:49;;;;;;;;;;;;;;;-145.63;100.00;61273.97;4975750;28;20071;-64
2024/04/10 05:56:24;;;;;;;17.88;11.68;;;;;;;-145.63;100.00;61273.97;4984409;28;19948;-64
2024/04/10 05:58:58;;;;;;;15.05;11.77;;;;;;;-145.63;100.00;61273.97;4975616;28;20078;-68
2024/04/10 06:01:36;;;;;;;14.75;11.13;;;;;;;-145.63;100.00;61273.97;4975400;28;20041;-66
2024/04/10 06:04:36;;;;;;;16.63;11.10;;;;;;;-145.63;100.00;61273.97;4987861;28;20099;-66
2024/04/10 06:07:10;;;;;;;14.93;11.60;;;;;;;-145.63;100.00;61273.97;4974720;28;20030;-66
2024/04/10 06:09:39;;;;;;;21.90;12.50;;;;;;;-145.63;100.00;61273.97;4984240;28;20116;-66
2024/04/10 06:12:28;;;;;;;17.15;12.05;;;;;;;-145.63;100.00;61273.97;4988746;28;20105;-67
2024/04/10 06:18:11;;;;;;;14.43;11.38;;;;;;;-145.63;100.00;61273.97;4990283;28;20037;-67
2024/04/10 06:20:55;;;;;;;15.60;11.75;;;;;;;-145.63;100.00;61273.97;4977670;28;20471;-66
2024/04/10 06:24:07;;;;;;;17.00;12.00;;;;;;;-145.63;100.00;61273.97;4974869;28;20113;-66
2024/04/10 06:26:48;;;;;;;15.50;11.80;;;;;;;-145.63;100.00;61273.97;4994590;28;20440;-67
2024/04/10 06:29:37;;;;;;;16.98;11.98;;;;;;;-145.63;100.00;61273.97;4990263;28;20042;-68
2024/04/10 06:32:03;;;;;;;18.23;14.48;;;;;;;-145.63;100.00;61273.97;4990932;28;20486;-67
2024/04/10 06:34:38;;;;;;;20.10;13.48;;;;;;;-145.63;100.00;61273.97;4994021;28;20038;-66
2024/04/10 06:37:06;;;;;;;19.52;14.35;;;;;;;-145.63;100.00;61273.97;4983829;28;20555;-67
2024/04/10 06:42:57;;;;;;;17.58;11.00;;;;;;;-145.63;100.00;61273.97;4984207;28;20361;-68
2024/04/10 06:45:28;;;;;;;19.73;10.50;;;;;;;-145.63;100.00;61273.97;4986684;28;20046;-67
2024/04/10 06:47:59;;;;;;;17.35;11.45;;;;;;;-145.63;100.00;61273.97;4994215;28;20034;-66
2024/04/10 06:50:40;;;;;;;17.38;11.90;;;;;;;-145.63;100.00;61273.97;4994386;28;20034;-68
2024/04/10 06:53:09;;;;;;;19.33;12.73;;;;;;;-145.63;100.00;61273.97;5010456;28;20117;-67
2024/04/10 06:55:37;;;;;;;19.65;13.63;;;;;;;-145.63;100.00;61273.97;4981512;28;20022;-68
2024/04/10 06:58:25;;;;;;;19.33;13.80;;;;;;;-145.63;100.00;61273.97;4980993;28;20043;-68
2024/04/10 07:01:17;;;;;;;19.75;12.95;;;;;;;-145.63;100.00;61273.97;4974287;28;20129;-67
2024/04/10 07:03:43;;;;;;;17.92;14.43;;;;;;;-145.63;100.00;61273.97;4984530;28;20046;-68
2024/04/10 07:06:27;;;;;;;18.55;13.55;;;;;;;-145.63;100.00;61273.97;4994104;28;20046;-68
2024/04/10 07:09:11;;;;;;;21.33;14.13;;;;;;;-145.63;100.00;61273.97;4989710;28;20463;-67
2024/04/10 07:12:01;;;;;;;19.55;13.27;;;;;;;-145.63;100.00;61273.97;4975828;28;20039;-67
2024/04/10 07:14:45;;;;;;;20.50;14.52;;;;;;;-145.63;100.00;61273.97;4993107;28;20037;-68
2024/04/10 07:17:23;;;;;;;20.17;14.02;;;;;;;-145.63;100.00;61273.97;4993885;28;20372;-68
2024/04/10 07:20:26;;;;;;;24.52;15.75;;;;;;;-145.63;100.00;61273.97;4974792;28;20380;-67
2024/04/10 07:22:54;;;;;;;25.60;16.33;;;;;;;-145.63;100.00;61273.97;4983629;28;20038;-67
2024/04/10 07:25:29;;;;;;;25.75;17.23;;;;;;;-145.63;100.00;61273.97;4978348;28;20030;-67
2024/04/10 07:28:13;;;;;;;26.38;16.25;;;;;;;-145.63;100.00;61273.97;5005434;28;20121;-68
2024/04/10 07:31:05;;;;;;;30.17;16.50;;;;;;;-145.63;100.00;61273.97;5001504;28;20914;-68
2024/04/10 07:33:40;;;;;;;25.35;15.63;;;;;;;-145.63;100.00;61273.97;4993494;28;20026;-69
2024/04/10 07:36:25;;;;;;;25.60;16.92;;;;;;;-145.63;100.00;61273.97;4988032;28;20081;-66
2024/04/10 07:39:05;;;;;;;25.13;17.00;;;;;;;-145.63;100.00;61273.97;4977107;28;20053;-68
2024/04/10 07:41:55;;;;;;;23.48;16.55;;;;;;;-145.63;100.00;61273.97;5007645;28;20034;-69
2024/04/10 07:44:20;;;;;;;28.95;16.30;;;;;;;-145.63;100.00;61273.97;4992707;28;20030;-67
2024/04/10 07:47:07;;;;;;;26.80;18.70;;;;;;;-145.63;100.00;61273.97;4983198;28;20132;-67
2024/04/10 07:52:48;;;;;;;26.00;17.83;;;;;;;-145.63;100.00;61273.97;4975199;28;20041;-67
2024/04/10 07:55:25;;;;;;;32.55;18.48;;;;;;;-145.63;100.00;61273.97;4988623;28;20041;-68
2024/04/10 07:58:24;;;;;;;29.75;19.63;;;;;;;-145.63;100.00;61273.97;4984370;28;20073;-67
2024/04/10 08:01:25;;;;;;;23.85;15.98;;;;;;;-145.63;100.00;61273.97;4982428;28;20050;-68
2024/04/10 08:04:15;;;;;;;26.83;17.05;;;;;;;-145.63;100.00;61273.97;4982515;28;20451;-68
2024/04/10 08:06:50;;;;;;;28.73;18.25;;;;;;;-145.63;100.00;61273.97;4992217;28;20030;-67
2024/04/10 08:09:18;;;;;;;26.80;18.50;;;;;;;-145.63;100.00;61273.97;4986116;28;20078;-67
2024/04/10 08:12:05;;;;;;;29.25;19.05;;;;;;;-145.63;100.00;61273.97;4972563;28;20511;-68
2024/04/10 08:14:53;;;;;;;33.03;18.95;;;;;;;-145.63;100.00;61273.97;4972992;28;20030;-67
2024/04/10 08:17:40;;;;;;;29.38;18.35;;;;;;;-145.63;100.00;61273.97;4991965;28;20049;-67
2024/04/10 08:20:21;;;;;;;27.17;15.45;;;;;;;-145.63;100.00;61273.97;4991417;28;20039;-67
2024/04/10 08:25:49;;;;;;;;;;;;;;;-145.63;100.00;61273.97;4991861;28;20053;-67
2024/04/10 08:28:20;;;;;;;29.80;19.52;;;;;;;-145.63;100.00;61273.97;5006217;28;20453;-68
2024/04/10 08:34:37;;;;;;;30.33;19.23;;;;;;;-145.63;100.00;61273.97;4991983;28;20085;-67
2024/04/10 08:37:14;;;;;;;28.67;19.00;;;;;;;-145.63;100.00;61273.97;4978086;28;20510;-67
2024/04/10 08:40:02;;;;;;;29.88;20.20;;;;;;;-145.63;100.00;61273.97;4982450;28;20057;-67
2024/04/10 08:42:59;;;;;;;32.92;21.17;;;;;;;-145.63;100.00;61273.97;4982321;28;20046;-66
2024/04/10 08:45:31;;;;;;;28.35;20.40;;;;;;;-145.63;100.00;61273.97;4980103;28;20049;-68
2024/04/10 08:48:03;;;;;;;26.02;17.48;;;;;;;-145.63;100.00;61273.97;4986952;28;20031;-66
2024/04/10 08:51:03;;;;;;;26.85;16.27;;;;;;;-145.63;100.00;61273.97;4972343;28;20488;-65
2024/04/10 08:53:47;;;;;;;20.85;16.15;;;;;;;-145.63;100.00;61273.97;4972539;28;20037;-66
2024/04/10 08:56:18;;;;;;;25.25;16.55;;;;;;;-145.63;100.00;61273.97;4971998;28;20486;-66
2024/04/10 08:59:01;;;;;;;23.25;15.60;;;;;;;-145.63;100.00;61273.97;4990087;28;20043;-66
2024/04/10 09:01:28;;;;;;;19.50;14.68;;;;;;;-145.63;100.00;61273.97;4984620;28;20030;-66
2024/04/10 09:04:03;;;;;;;27.52;15.45;;;;;;;-145.63;100.00;61273.97;4978655;28;20389;-67
2024/04/10 09:06:43;;;;;;;19.65;12.18;;;;;;;-145.63;100.00;61273.97;4978534;28;20035;-67
2024/04/10 09:09:32;;;;;;;22.48;11.77;;;;;;;-145.63;100.00;61273.97;4980154;28;20395;-68
2024/04/10 09:12:25;;;;;;;24.05;11.52;;;;;;;-145.63;100.00;61273.97;4987145;28;20139;-67
2024/04/10 09:15:01;;;;;;;14.93;10.82;;;;;;;-145.63;100.00;61273.97;4974537;28;20042;-66
2024/04/10 09:20:23;;;;;;;21.40;12.55;;;;;;;-145.63;100.00;61273.97;4971371;28;20427;-68
2024/04/10 09:26:32;;;;;;;15.38;10.57;;;;;;;-145.63;100.00;61273.97;4990627;28;20026;-67
2024/04/10 09:29:12;;;;;;;17.88;9.20;;;;;;;-145.63;100.00;61273.97;4991721;28;20113;-68
2024/04/10 09:31:39;;;;;;;19.55;8.85;;;;;;;-145.63;100.00;61273.97;4974409;28;20045;-67
2024/04/10 09:34:08;;;;;;;17.65;9.02;;;;;;;-145.63;100.00;61273.97;4972567;28;20094;-68
2024/04/10 09:36:46;;;;;;;22.38;9.85;;;;;;;-145.63;100.00;61273.97;4980423;28;20030;-67
2024/04/10 09:39:22;;;;;;;13.77;8.27;;;;;;;-145.63;100.00;61273.97;4986062;28;20031;-67
2024/04/10 09:42:09;;;;;;;16.75;8.93;;;;;;;-145.63;100.00;61273.97;4976484;28;20046;-67
2024/04/10 09:44:55;;;;;;;16.63;8.73;;;;;;;-145.63;100.00;61273.97;4989766;28;20026;-67
2024/04/10 09:47:30;;;;;;;15.50;8.55;;;;;;;-145.63;100.00;61273.97;4981156;28;20030;-68
2024/04/10 09:50:23;;;;;;;13.88;7.72;;;;;;;-145.63;100.00;61273.97;4972525;28;20038;-68
2024/04/10 09:52:59;;;;;;;19.45;7.72;;;;;;;-145.63;100.00;61273.97;4991632;28;20035;-67
2024/04/10 09:56:05;;;;;;;16.92;7.10;;;;;;;-145.63;100.00;61273.97;4976142;28;20142;-66
2024/04/10 09:59:07;;;;;;;19.42;6.88;;;;;;;-145.63;100.00;61273.97;4987206;28;20046;-67
2024/04/10 10:01:39;;;;;;;15.57;6.72;;;;;;;-145.63;100.00;61273.97;4989864;28;20369;-67
2024/04/10 10:04:23;;;;;;;10.75;5.80;;;;;;;-145.63;100.00;61273.97;4978078;28;20101;-67
2024/04/10 10:07:03;;;;;;;15.27;6.15;;;;;;;-145.63;100.00;61273.97;4984039;28;20034;-67
2024/04/10 10:09:28;;;;;;;16.10;6.18;;;;;;;-145.63;100.00;61273.97;4984046;28;20026;-66
2024/04/10 10:16:05;;;;;;;19.85;7.47;;;;;;;-145.63;100.00;61273.97;4982842;28;20041;-67
2024/04/10 10:18:33;;;;;;;19.17;7.50;;;;;;;-145.63;100.00;61273.97;4987513;28;20026;-68
2024/04/10 10:21:18;;;;;;;14.85;6.40;;;;;;;-145.63;100.00;61273.97;4978869;28;20038;-70
2024/04/10 10:23:57;;;;;;;17.30;6.78;;;;;;;-145.63;100.00;61273.97;4993774;28;20046;-67
2024/04/10 10:26:27;;;;;;;15.05;7.00;;;;;;;-145.63;100.00;61273.97;4984106;28;20045;-65
2024/04/10 10:29:15;;;;;;;13.20;7.50;;;;;;;-145.63;100.00;61273.97;4994838;28;20463;-66
2024/04/10 10:32:02;;;;;;;13.40;7.68;;;;;;;-145.63;100.00;61273.97;4977305;28;20035;-65
2024/04/10 10:34:42;;;;;;;13.68;7.57;;;;;;;-145.63;100.00;61273.97;4974855;28;20039;-66
2024/04/10 10:37:14;;;;;;;22.52;8.32;;;;;;;-145.63;100.00;61273.97;4990056;28;20114;-66
2024/04/10 10:39:55;;;;;;;;;;;;;;;-145.63;100.00;61273.97;4986190;28;20340;-67
2024/04/10 10:42:23;;;;;;;15.13;8.27;;;;;;;-145.63;100.00;61273.97;4991652;28;20008;-67
2024/04/10 10:45:02;;;;;;;17.50;7.75;;;;;;;-145.63;100.00;61273.97;4991728;28;20098;-67
2024/04/10 10:47:42;;;;;;;16.10;7.70;;;;;;;-145.63;100.00;61273.97;4983898;28;20402;-68
2024/04/10 10:50:29;;;;;;;15.20;7.55;;;;;;;-145.63;100.00;61273.97;4995036;28;20494;-67
2024/04/10 10:52:58;;;;;;;;;;;;;;;-145.63;100.00;61273.97;4975496;28;20045;-67
2024/04/10 10:55:29;;;;;;;15.90;7.15;;;;;;;-145.63;100.00;61273.97;4974674;28;19914;-66
2024/04/10 10:58:04;;;;;;;;;;;;;;;-145.63;100.00;61273.97;4975776;28;20078;-66
2024/04/10 11:03:38;;;;;;;18.00;6.72;;;;;;;-145.63;100.00;61273.97;4993961;28;20106;-66
2024/04/10 11:06:19;;;;;;;16.02;5.75;;;;;;;-145.63;100.00;61273.97;4990909;28;20110;-68
2024/04/10 11:08:47;;;;;;;14.70;5.25;;;;;;;-145.63;100.00;61273.97;4974352;28;20109;-66
2024/04/10 11:11:29;;;;;;;15.93;6.00;;;;;;;-145.63;100.00;61273.97;4994197;28;20033;-67
2024/04/10 11:14:20;;;;;;;10.70;6.55;;;;;;;-145.63;100.00;61273.97;4993981;28;20034;-66
2024/04/10 11:17:19;;;;;;;11.52;6.65;;;;;;;-145.63;100.00;61273.97;4988843;28;20030;-65
2024/04/10 11:20:13;;;;;;;12.93;5.65;;;;;;;-145.63;100.00;61273.97;4993991;28;20053;-67
2024/04/10 11:23:04;;;;;;;11.82;6.50;;;;;;;-145.63;100.00;61273.97;4977391;28;20431;-67
2024/04/10 11:25:48;;;;;;;14.50;6.80;;;;;;;-145.63;100.00;61273.97;4988239;28;20045;-67
2024/04/10 11:28:14;;;;;;;12.75;7.47;;;;;;;-145.63;100.00;61273.97;5020727;28;20096;-68
2024/04/10 11:30:43;;;;;;;13.95;7.60;;;;;;;-145.63;100.00;61273.97;5003208;28;20456;-69
2024/04/10 11:33:08;;;;;;;13.30;8.18;;;;;;;-145.63;100.00;61273.97;4993386;28;20557;-66
2024/04/10 11:35:43;;;;;;;16.05;7.88;;;;;;;-145.63;100.00;61273.97;4993393;28;20054;-66
2024/04/10 11:38:27;;;;;;;17.08;9.07;;;;;;;-145.63;100.00;61273.97;4973738;28;20037;-67
2024/04/10 11:40:58;;;;;;;12.95;9.15;;;;;;;-145.63;100.00;61273.97;4990395;28;20440;-66
2024/04/10 11:43:27;;;;;;;20.17;8.65;;;;;;;-145.63;100.00;61273.97;4979972;28;20022;-66
2024/04/10 11:46:33;;;;;;;11.80;8.05;;;;;;;-145.63;100.00;61273.97;4973576;28;20043;-67
2024/04/10 11:49:02;;;;;;;12.40;7.65;;;;;;;-145.63;100.00;61273.97;4985846;28;20032;-67
2024/04/10 11:51:31;;;;;;;13.77;8.02;;;;;;;-145.63;100.00;61273.97;4986994;28;20039;-65
2024/04/10 11:54:03;;;;;;;11.55;8.35;;;;;;;-145.63;100.00;61273.97;4987583;28;20066;-66
2024/04/10 11:56:41;;;;;;;13.45;8.57;;;;;;;-145.63;100.00;61273.97;4977536;28;20030;-66
2024/04/10 11:59:31;;;;;;;13.80;8.93;;;;;;;-145.63;100.00;61273.97;4973625;28;20088;-67
2024/04/10 12:02:37;;;;;;;14.63;8.02;;;;;;;-145.63;100.00;61273.97;4989493;28;20578;-68
2024/04/10 12:05:06;;;;;;;18.75;8.70;;;;;;;-145.63;100.00;61273.97;4974516;28;20058;-69
2024/04/10 12:07:50;;;;;;;14.82;9.48;;;;;;;-145.63;100.00;61273.97;4990469;28;20113;-68
2024/04/10 12:10:46;;;;;;;14.13;8.23;;;;;;;-145.63;100.00;61273.97;4992320;28;20430;-68
2024/04/10 12:13:42;;;;;;;17.92;7.85;;;;;;;-145.63;100.00;61273.97;4978755;28;20115;-68
2024/04/10 12:16:38;;;;;;;14.75;8.23;;;;;;;-145.63;100.00;61273.97;4989059;28;20039;-67
2024/04/10 12:19:19;;;;;;;19.58;9.48;;;;;;;-145.63;100.00;61273.97;4985929;28;20104;-67
2024/04/10 12:21:50;;;;;;;15.18;7.88;;;;;;;-145.63;100.00;61273.97;4981813;28;20038;-67
2024/04/10 12:24:40;;;;;;;15.82;8.30;;;;;;;-145.63;100.00;61273.97;4979215;28;20037;-66
2024/04/10 12:27:15;;;;;;;17.17;8.45;;;;;;;-145.63;100.00;61273.97;4975726;28;20043;-66
2024/04/10 12:29:53;;;;;;;16.25;10.27;;;;;;;-145.63;100.00;61273.97;4978387;28;20609;-65
2024/04/10 12:32:47;;;;;;;17.87;9.50;;;;;;;-145.63;100.00;61273.97;4992728;28;20695;-68
2024/04/10 12:39:00;;;;;;;16.02;8.95;;;;;;;-145.63;100.00;61273.97;4981262;28;20036;-66
2024/04/10 12:41:35;;;;;;;13.05;9.07;;;;;;;-145.63;100.00;61273.97;4987465;28;20049;-65
2024/04/10 12:44:37;;;;;;;19.08;9.43;;;;;;;-145.63;100.00;61273.97;4974094;28;20143;-66
2024/04/10 12:50:36;;;;;;;15.77;8.65;;;;;;;-145.63;100.00;61273.97;4972740;28;20041;-67
2024/04/10 12:53:10;;;;;;;12.75;9.55;;;;;;;-145.63;100.00;61273.97;4989151;28;20121;-68
2024/04/10 12:55:41;;;;;;;12.02;9.18;;;;;;;-145.63;100.00;61273.97;4986769;28;20022;-67
2024/04/10 12:58:41;;;;;;;18.10;10.40;;;;;;;-145.63;100.00;61273.97;5001211;28;20061;-67
2024/04/10 13:01:10;;;;;;;17.08;9.68;;;;;;;-145.63;100.00;61273.97;4991418;28;20072;-68
2024/04/10 13:03:36;;;;;;;19.48;9.75;;;;;;;-145.63;100.00;61273.97;4988981;28;20034;-68
2024/04/10 13:06:36;;;;;;;21.45;9.63;;;;;;;-145.63;100.00;61273.97;4978634;28;20093;-66
2024/04/10 13:09:20;;;;;;;17.80;10.65;;;;;;;-145.63;100.00;61273.97;4990098;28;20041;-65
2024/04/10 13:11:46;;;;;;;17.98;9.98;;;;;;;-145.63;100.00;61273.97;4981329;28;20031;-65
2024/04/10 13:14:30;;;;;;;16.35;10.77;;;;;;;-145.63;100.00;61273.97;4977522;28;20053;-67
2024/04/10 13:20:08;;;;;;;17.73;9.93;;;;;;;-145.63;100.00;61273.97;4983387;28;20035;-65
2024/04/10 13:22:39;;;;;;;17.13;10.07;;;;;;;-145.63;100.00;61273.97;4991317;28;20077;-65
2024/04/10 13:25:06;;;;;;;21.02;9.73;;;;;;;-145.63;100.00;61273.97;4981827;28;20070;-66
2024/04/10 13:28:02;;;;;;;20.77;9.35;;;;;;;-145.63;100.00;61273.97;4991291;28;20050;-66
2024/04/10 13:30:33;;;;;;;20.10;9.80;;;;;;;-145.63;100.00;61273.97;4984702;28;20502;-65